Time;durP1;ratioP1;P1;durP2;ratioP2;P2;SDS_P1;SDS_P2;PMS_P1;PMS_P2;Temp;Humidity;BMP_temperature;BMP_pressure;BME280_temperature;BME280_humidity;BME280_pressure;Samples;Min_cycle;Max_cycle;Signal;HPM_P1;HPM_P2
2022/04/23 00:01:31;;;;;;;11.40;9.20;;;;;;;-146.64;100.00;39129.03;5034365;28;20029;-81
2022/04/23 00:03:56;;;;;;;11.98;8.38;;;;;;;-146.64;100.00;39124.94;4997087;28;20125;-81
2022/04/23 00:06:21;;;;;;;13.33;8.90;;;;;;;-146.64;100.00;39124.94;4998197;28;20437;-79
2022/04/23 00:08:47;;;;;;;18.50;9.23;;;;;;;-146.64;100.00;39116.75;5013441;28;20044;-80
2022/04/23 00:11:13;;;;;;;14.15;9.57;;;;;;;-146.64;100.00;39139.28;5000367;28;20038;-80
2022/04/23 00:13:38;;;;;;;20.00;9.30;;;;;;;-146.64;100.00;39137.22;5023352;28;20030;-80
2022/04/23 00:16:07;;;;;;;10.97;8.90;;;;;;;-146.64;100.00;39137.22;5014052;28;20088;-80
2022/04/23 00:18:33;;;;;;;14.75;9.57;;;;;;;-146.64;100.00;39039.00;5003292;28;20025;-81
2022/04/23 00:21:00;;;;;;;15.97;8.57;;;;;;;-146.64;100.00;39196.56;4996186;28;20021;-80
2022/04/23 00:23:27;;;;;;;16.15;9.75;;;;;;;-146.64;100.00;39163.81;5011931;28;20044;-80
2022/04/23 00:25:54;;;;;;;;;;;;;;;-146.64;100.00;39215.00;5029323;28;20053;-80
2022/04/23 00:28:19;;;;;;;17.08;9.13;;;;;;;-146.64;100.00;39221.13;5011505;28;19921;-81
2022/04/23 00:30:46;;;;;;;16.07;8.80;;;;;;;-146.64;100.00;39223.19;5010764;28;20220;-80
2022/04/23 00:33:12;;;;;;;10.82;8.23;;;;;;;-146.64;100.00;39247.75;4988537;28;20154;-80
2022/04/23 00:35:38;;;;;;;16.47;8.73;;;;;;;-146.64;100.00;39231.38;5016227;28;20053;-79
2022/04/23 00:38:05;;;;;;;12.63;8.80;;;;;;;-146.64;100.00;39280.47;5017924;28;20368;-81
2022/04/23 00:40:31;;;;;;;16.65;9.10;;;;;;;-146.64;100.00;39288.66;5022441;28;20057;-80
2022/04/23 00:42:58;;;;;;;12.33;8.93;;;;;;;-146.64;100.00;39260.00;4992668;28;20064;-80
2022/04/23 00:45:27;;;;;;;11.88;8.32;;;;;;;-146.64;100.00;39309.13;5003888;28;20042;-80
2022/04/23 00:47:53;;;;;;;12.88;9.70;;;;;;;-146.64;100.00;39309.13;5005884;28;20101;-79
2022/04/23 00:50:21;;;;;;;20.58;10.15;;;;;;;-146.64;100.00;39292.75;5014994;28;20030;-80
2022/04/23 00:52:49;;;;;;;16.38;10.05;;;;;;;-146.64;100.00;39370.53;4988915;28;20049;-80
2022/04/23 00:55:17;;;;;;;16.08;9.57;;;;;;;-146.64;100.00;39368.50;5024272;28;20030;-80
2022/04/23 00:57:43;;;;;;;13.63;10.07;;;;;;;-146.64;100.00;39386.91;5013292;28;20025;-80
2022/04/23 01:00:09;;;;;;;19.13;10.20;;;;;;;-146.64;100.00;39343.94;5022088;28;20074;-78
2022/04/23 01:02:36;;;;;;;13.15;9.93;;;;;;;-146.64;100.00;39403.28;5020974;28;20596;-77
2022/04/23 01:05:03;;;;;;;14.90;10.02;;;;;;;-146.64;100.00;39415.56;5013045;28;20057;-78
2022/04/23 01:07:29;;;;;;;13.25;10.50;;;;;;;-146.64;100.00;39444.22;5030462;28;20061;-78
2022/04/23 01:09:55;;;;;;;22.30;11.25;;;;;;;-146.64;100.00;39483.09;5005245;28;20091;-78
2022/04/23 01:12:21;;;;;;;18.52;10.77;;;;;;;-146.64;100.00;39507.66;5007602;28;20540;-78
2022/04/23 01:15:10;;;;;;;16.92;10.77;;;;;;;-146.64;100.00;39499.47;4997842;28;20060;-78
2022/04/23 01:17:36;;;;;;;13.23;10.60;;;;;;;-146.64;100.00;39567.00;4999090;28;20092;-79
2022/04/23 01:20:12;;;;;;;17.25;11.27;;;;;;;-146.64;100.00;39452.41;5003706;28;20501;-79
2022/04/23 01:22:38;;;;;;;14.48;11.73;;;;;;;-146.64;100.00;39460.59;4999083;28;20037;-79
2022/04/23 01:25:07;;;;;;;22.20;12.13;;;;;;;-146.64;100.00;39544.50;5008572;28;20029;-78
2022/04/23 01:27:34;;;;;;;17.75;12.90;;;;;;;-146.64;100.00;39548.59;5003336;28;20755;-79
2022/04/23 01:30:00;;;;;;;15.50;12.65;;;;;;;-146.64;100.00;39481.06;5006422;28;20029;-78
2022/04/23 01:32:25;;;;;;;14.45;11.75;;;;;;;-146.64;100.00;39616.13;5015643;28;20069;-77
2022/04/23 01:34:51;;;;;;;15.20;12.60;;;;;;;-146.64;100.00;39607.94;5013959;28;20038;-79
2022/04/23 01:37:19;;;;;;;16.80;13.03;;;;;;;-146.64;100.00;39677.53;5019132;28;20030;-78
2022/04/23 01:39:45;;;;;;;17.23;13.40;;;;;;;-146.64;100.00;39867.91;5031343;28;20476;-78
2022/04/23 01:42:10;;;;;;;20.87;13.30;;;;;;;-146.64;100.00;39861.75;5019196;28;20120;-78
2022/04/23 01:44:36;;;;;;;19.83;14.37;;;;;;;-146.64;100.00;39964.09;5002773;28;20540;-78
2022/04/23 01:47:03;;;;;;;17.63;12.67;;;;;;;-146.64;100.00;39867.91;5004926;28;20378;-77
2022/04/23 01:49:28;;;;;;;;;;;;;;;-146.64;100.00;39992.75;5009019;28;20080;-79
2022/04/23 01:51:54;;;;;;;20.95;12.57;;;;;;;-146.64;100.00;40174.94;5021101;28;19917;-78
2022/04/23 01:54:20;;;;;;;16.80;12.97;;;;;;;-146.64;100.00;40471.78;5001323;28;20029;-79
2022/04/23 01:56:46;;;;;;;23.60;14.00;;;;;;;-146.64;100.00;40744.06;5025836;28;20580;-79
2022/04/23 01:59:11;;;;;;;18.45;13.68;;;;;;;-146.64;100.00;40787.06;5015465;28;20072;-78
2022/04/23 02:01:37;;;;;;;20.43;14.93;;;;;;;-146.64;100.00;41217.03;5017759;28;20030;-78
2022/04/23 02:04:06;;;;;;;18.75;14.55;;;;;;;-146.64;100.00;41446.38;5034633;28;20029;-79
2022/04/23 02:06:33;;;;;;;20.00;15.05;;;;;;;-146.64;100.00;41978.81;5023074;28;20049;-78
2022/04/23 02:09:00;;;;;;;21.42;14.75;;;;;;;-146.64;100.00;42322.88;5011670;28;20052;-78
2022/04/23 02:11:25;;;;;;;17.77;14.60;;;;;;;-146.64;100.00;42949.66;5001535;28;20054;-76
2022/04/23 02:13:51;;;;;;;20.30;16.10;;;;;;;-146.64;100.00;43273.34;5009627;28;20095;-79
2022/04/23 02:16:16;;;;;;;19.50;15.20;;;;;;;-146.64;100.00;43756.84;5006411;28;20208;-78
2022/04/23 02:18:41;;;;;;;26.27;17.00;;;;;;;-146.64;100.00;44867.53;4998978;28;20093;-79
2022/04/23 02:21:07;;;;;;;25.42;16.95;;;;;;;-146.64;100.00;47042.63;5002017;28;20033;-78
2022/04/23 02:23:32;;;;;;;25.50;17.15;;;;;;;-146.64;100.00;47463.03;5019361;28;20103;-79
2022/04/23 02:25:58;;;;;;;21.45;17.38;;;;;;;-146.64;100.00;50010.97;5003702;28;20036;-78
2022/04/23 02:28:23;;;;;;;20.23;16.97;;;;;;;-146.64;100.00;51564.78;5000997;28;20033;-78
2022/04/23 02:30:50;;;;;;;23.73;16.55;;;;;;;-146.64;100.00;53201.31;4998854;28;20025;-79
2022/04/23 02:33:16;;;;;;;;;;;;;;;-146.64;100.00;53201.31;4984017;28;20034;-78
2022/04/23 02:35:41;;;;;;;24.70;17.42;;;;;;;-146.64;100.00;51653.06;5026670;28;19927;-78
2022/04/23 02:38:07;;;;;;;24.30;17.37;;;;;;;-146.64;100.00;52659.16;5004627;28;20041;-78
2022/04/23 02:40:34;;;;;;;26.00;17.33;;;;;;;-146.64;100.00;52675.59;5012326;28;20037;-78
2022/04/23 02:43:03;;;;;;;24.70;18.00;;;;;;;-146.64;100.00;50688.25;5007695;28;20029;-78
2022/04/23 02:45:28;;;;;;;23.70;17.92;;;;;;;-146.64;100.00;50938.66;4997601;28;20345;-78
2022/04/23 02:47:57;;;;;;;22.53;17.23;;;;;;;-146.64;100.00;52121.16;5008799;28;20025;-79
2022/04/23 02:50:37;;;;;;;24.10;17.90;;;;;;;-146.64;100.00;55041.97;5012415;28;20036;-78
2022/04/23 02:53:04;;;;;;;23.67;17.40;;;;;;;-146.64;100.00;55041.97;5005989;28;20033;-78
2022/04/23 02:55:31;;;;;;;27.52;19.48;;;;;;;-146.64;100.00;54253.00;5004526;28;20349;-78
2022/04/23 02:58:07;;;;;;;26.42;19.88;;;;;;;-146.64;100.00;53727.13;5009640;28;20057;-77
2022/04/23 03:00:33;;;;;;;28.60;19.30;;;;;;;-146.64;100.00;58199.34;5017147;28;20030;-79
2022/04/23 03:02:59;;;;;;;32.63;20.47;;;;;;;-146.64;100.00;57146.59;5017772;28;20071;-77
2022/04/23 03:05:26;;;;;;;27.93;20.70;;;;;;;-146.64;100.00;57672.94;5011634;28;20072;-78
2022/04/23 03:07:53;;;;;;;24.80;19.35;;;;;;;-146.64;100.00;58462.56;5002314;28;20052;-80
2022/04/23 03:10:18;;;;;;;;;;;;;;;-146.64;100.00;56357.25;5019715;28;20396;-78
2022/04/23 03:12:47;;;;;;;30.52;20.08;;;;;;;-146.64;100.00;56620.34;4996656;28;19936;-80
2022/04/23 03:15:19;;;;;;;25.98;19.90;;;;;;;-146.64;100.00;57936.13;5011706;28;20493;-77
2022/04/23 03:17:45;;;;;;;27.95;20.98;;;;;;;-146.64;100.00;60832.41;5035157;28;20025;-79
2022/04/23 03:20:14;;;;;;;36.72;21.80;;;;;;;-146.64;100.00;63203.69;5005401;28;20026;-78
2022/04/23 03:22:43;;;;;;;29.15;22.02;;;;;;;-146.64;100.00;63994.41;4996456;28;20376;-80
2022/04/23 03:25:11;;;;;;;31.60;21.90;;;;;;;-146.64;100.00;63730.81;5018161;28;20038;-78
2022/04/23 03:27:37;;;;;;;34.55;21.17;;;;;;;-146.64;100.00;65576.34;5004636;28;20034;-80
2022/04/23 03:30:03;;;;;;;32.40;25.07;;;;;;;-146.64;100.00;67422.72;4995273;28;20072;-80
2022/04/23 03:32:34;;;;;;;30.45;22.58;;;;;;;-146.64;100.00;68478.19;5017464;28;20044;-79
2022/04/23 03:35:05;;;;;;;31.88;21.92;;;;;;;-146.64;100.00;67950.44;5012823;28;20085;-79
2022/04/23 03:37:30;;;;;;;31.85;21.85;;;;;;;-146.64;100.00;68214.31;4999815;28;20021;-80
2022/04/23 03:39:56;;;;;;;31.00;22.60;;;;;;;-146.64;100.00;69533.94;4997276;28;20114;-79
2022/04/23 03:42:21;;;;;;;34.10;24.80;;;;;;;-146.64;100.00;70061.91;5007426;28;20193;-79
2022/04/23 03:44:46;;;;;;;30.57;22.33;;;;;;;-146.64;100.00;70854.00;5005465;28;20068;-79
2022/04/23 03:47:11;;;;;;;31.20;23.13;;;;;;;-146.64;100.00;71118.06;5011679;28;20033;-79
2022/04/23 03:49:37;;;;;;;30.20;23.60;;;;;;;-146.64;100.00;70589.97;4994134;28;20025;-76
2022/04/23 03:52:02;;;;;;;33.70;24.25;;;;;;;-146.64;100.00;71118.06;5017173;28;20038;-79
2022/04/23 03:54:28;;;;;;;32.65;22.95;;;;;;;-146.64;100.00;72702.84;5000173;28;20532;-79
2022/04/23 03:56:53;;;;;;;31.92;23.38;;;;;;;-146.64;100.00;72702.84;5021466;28;20404;-79
2022/04/23 03:59:23;;;;;;;32.20;22.50;;;;;;;-146.64;100.00;73231.22;4987371;28;20025;-79
2022/04/23 04:01:53;;;;;;;36.53;23.15;;;;;;;-146.64;100.00;75345.50;5005752;28;20112;-78
2022/04/23 04:04:18;;;;;;;34.63;25.40;;;;;;;-146.64;100.00;74288.22;4996269;28;20041;-81
2022/04/23 04:06:44;;;;;;;30.83;24.60;;;;;;;-146.64;100.00;73495.47;5016001;28;20044;-80
2022/04/23 04:09:09;;;;;;;31.17;23.57;;;;;;;-146.64;100.00;74816.84;5002804;28;20461;-79
2022/04/23 04:14:19;;;;;;;32.75;24.02;;;;;;;-146.64;100.00;76138.66;5020336;28;20036;-79
2022/04/23 04:16:48;;;;;;;33.73;23.90;;;;;;;-146.64;100.00;76403.06;5003414;28;20168;-80
2022/04/23 04:19:17;;;;;;;36.75;23.52;;;;;;;-146.64;100.00;76403.06;5010700;28;20045;-79
2022/04/23 04:21:43;;;;;;;35.38;25.00;;;;;;;-146.64;100.00;76667.50;5006231;28;20036;-79
2022/04/23 04:24:12;;;;;;;30.03;24.07;;;;;;;-146.64;100.00;75874.25;5017631;28;20057;-79
2022/04/23 04:26:41;;;;;;;32.50;24.33;;;;;;;-146.64;100.00;77725.41;5010147;28;20018;-78
2022/04/23 04:29:07;;;;;;;34.72;25.40;;;;;;;-146.64;100.00;78519.03;5000269;28;20039;-79
2022/04/23 04:31:49;;;;;;;32.38;24.42;;;;;;;-146.64;100.00;79048.19;4995633;28;20498;-81
2022/04/23 04:34:18;;;;;;;32.20;24.27;;;;;;;-146.64;100.00;78519.03;5008274;28;20136;-78
2022/04/23 04:36:50;;;;;;;32.72;23.77;;;;;;;-146.64;100.00;78254.47;5005922;28;20029;-79
2022/04/23 04:39:17;;;;;;;34.65;24.83;;;;;;;-146.64;100.00;77989.94;4990964;28;20042;-77
2022/04/23 04:41:42;;;;;;;29.83;24.73;;;;;;;-146.64;100.00;79048.19;5009955;28;20117;-79
2022/04/23 04:44:08;;;;;;;33.50;24.92;;;;;;;-146.64;100.00;80106.72;4998172;28;20136;-78
2022/04/23 04:46:38;;;;;;;36.72;25.10;;;;;;;-146.64;100.00;80106.72;5000987;28;20063;-79
2022/04/23 04:49:04;;;;;;;37.15;24.45;;;;;;;-146.64;100.00;80371.41;5005651;28;20036;-79
2022/04/23 04:51:30;;;;;;;31.20;24.85;;;;;;;-146.64;100.00;80106.72;5007847;28;20026;-78
2022/04/23 04:53:56;;;;;;;32.00;23.87;;;;;;;-146.64;100.00;78519.03;4984458;28;20458;-79
2022/04/23 04:56:21;;;;;;;34.43;25.67;;;;;;;-146.64;100.00;76931.94;4998522;28;20045;-79
2022/04/23 04:58:47;;;;;;;34.37;25.60;;;;;;;-146.64;100.00;76667.50;5021530;28;20026;-79
2022/04/23 05:01:13;;;;;;;32.72;24.40;;;;;;;-146.64;100.00;77460.91;5016970;28;20037;-78
2022/04/23 05:03:40;;;;;;;31.63;24.47;;;;;;;-146.64;100.00;76667.50;4999144;28;20030;-78
2022/04/23 05:06:07;;;;;;;32.42;25.42;;;;;;;-146.64;100.00;75081.16;5014615;28;20033;-78
2022/04/23 05:08:34;;;;;;;32.90;24.25;;;;;;;-146.64;100.00;76138.66;5017362;28;20488;-79
2022/04/23 05:11:00;;;;;;;32.47;25.83;;;;;;;-146.64;100.00;76403.06;5009981;28;20061;-78
2022/04/23 05:13:25;;;;;;;32.97;25.50;;;;;;;-146.64;100.00;74816.84;5022795;28;20045;-80
2022/04/23 05:15:51;;;;;;;30.00;23.33;;;;;;;-146.64;100.00;74288.22;4997327;28;20548;-78
2022/04/23 05:18:17;;;;;;;31.97;25.07;;;;;;;-146.64;100.00;73759.69;5007485;28;20030;-79
2022/04/23 05:20:42;;;;;;;33.47;24.93;;;;;;;-146.64;100.00;72174.50;5005835;28;20034;-78
2022/04/23 05:23:07;;;;;;;35.07;25.00;;;;;;;-146.64;100.00;70061.91;5005650;28;20034;-80
2022/04/23 05:25:33;;;;;;;33.00;25.70;;;;;;;-146.64;100.00;67950.44;5011228;28;20090;-79
2022/04/23 05:27:58;;;;;;;31.97;24.17;;;;;;;-146.64;100.00;65840.06;4994959;28;20026;-79
2022/04/23 05:30:23;;;;;;;35.13;24.30;;;;;;;-146.64;100.00;63467.22;4993043;28;20376;-81
2022/04/23 05:32:49;;;;;;;34.35;24.73;;;;;;;-146.64;100.00;61095.81;4994420;28;20028;-80
2022/04/23 05:35:14;;;;;;;35.67;26.25;;;;;;;-146.64;100.00;57146.59;5011637;28;20545;-80
2022/04/23 05:37:40;;;;;;;29.73;23.23;;;;;;;-146.64;100.00;56094.16;4994534;28;20061;-80
2022/04/23 05:40:06;;;;;;;34.08;25.17;;;;;;;-146.64;100.00;53464.22;4991917;28;20128;-80
2022/04/23 05:42:31;;;;;;;27.52;23.08;;;;;;;-146.64;100.00;49842.72;5009001;28;20422;-80
2022/04/23 05:44:57;;;;;;;30.40;23.25;;;;;;;-146.64;100.00;48125.50;5008540;28;20034;-81
2022/04/23 05:47:22;;;;;;;33.33;24.05;;;;;;;-146.64;100.00;45929.28;5014640;28;20333;-80
2022/04/23 05:49:48;;;;;;;32.43;24.60;;;;;;;-146.64;100.00;45377.88;5019266;28;20064;-80
2022/04/23 05:52:13;;;;;;;30.20;23.20;;;;;;;-146.64;100.00;43931.00;5011729;28;20053;-81
2022/04/23 05:54:39;;;;;;;32.13;22.90;;;;;;;-146.64;100.00;43566.31;4995936;28;20026;-81
2022/04/23 05:57:04;;;;;;;32.90;24.42;;;;;;;-146.64;100.00;43035.69;4987373;28;20033;-80
2022/04/23 05:59:33;;;;;;;35.53;23.73;;;;;;;-146.64;100.00;43332.75;5012867;28;20065;-80
2022/04/23 06:01:58;;;;;;;31.23;23.80;;;;;;;-146.64;100.00;43152.47;4997605;28;20088;-81
2022/04/23 06:04:25;;;;;;;30.67;24.10;;;;;;;-146.64;100.00;42200.00;4996034;28;20049;-80
2022/04/23 06:06:51;;;;;;;28.10;22.27;;;;;;;-146.64;100.00;42146.75;4979205;28;20056;-81
2022/04/23 06:09:16;;;;;;;30.90;23.50;;;;;;;-146.64;100.00;41679.81;5011565;28;20038;-81
2022/04/23 06:11:41;;;;;;;29.73;23.17;;;;;;;-146.64;100.00;41688.00;5006424;28;20060;-80
2022/04/23 06:14:07;;;;;;;31.30;24.33;;;;;;;-146.64;100.00;41141.25;4990930;28;20029;-81
2022/04/23 06:16:34;;;;;;;31.30;24.30;;;;;;;-146.64;100.00;40473.81;4994945;28;20440;-80
2022/04/23 06:18:59;;;;;;;28.65;23.50;;;;;;;-146.64;100.00;39732.81;4993798;28;20184;-80
2022/04/23 06:21:25;;;;;;;26.57;23.00;;;;;;;-146.64;100.00;39483.09;4998839;28;20448;-80
2022/04/23 06:23:50;;;;;;;33.07;24.03;;;;;;;-146.64;100.00;39186.34;4993795;28;20541;-80
2022/04/23 06:26:15;;;;;;;30.77;22.92;;;;;;;-146.64;100.00;38877.31;5010809;28;20080;-80
2022/04/23 06:28:41;;;;;;;31.33;23.92;;;;;;;-146.64;100.00;38846.63;5013101;28;20053;-80
2022/04/23 06:31:06;;;;;;;29.17;23.03;;;;;;;-146.64;100.00;38764.78;5011423;28;20087;-80
2022/04/23 06:33:32;;;;;;;30.17;23.50;;;;;;;-146.64;100.00;38695.19;5014358;28;20032;-81
2022/04/23 06:35:57;;;;;;;25.73;22.70;;;;;;;-146.64;100.00;38650.19;5014243;28;20045;-82
2022/04/23 06:38:22;;;;;;;27.45;22.25;;;;;;;-146.64;100.00;38631.78;4995406;28;20029;-79
2022/04/23 06:40:48;;;;;;;28.50;23.03;;;;;;;-146.64;100.00;38566.28;5012499;28;20064;-79
2022/04/23 06:43:13;;;;;;;25.50;21.60;;;;;;;-146.64;100.00;38570.38;5016315;28;20025;-79
2022/04/23 06:45:39;;;;;;;31.33;21.73;;;;;;;-146.64;100.00;38523.31;4986707;28;20132;-81
2022/04/23 06:48:04;;;;;;;27.30;20.83;;;;;;;-146.64;100.00;38556.06;5003122;28;20038;-82
2022/04/23 06:50:33;;;;;;;27.47;21.03;;;;;;;-146.64;100.00;38537.66;5015731;28;20032;-81
2022/04/23 06:52:59;;;;;;;25.70;21.25;;;;;;;-146.64;100.00;38531.50;5004021;28;20061;-82
2022/04/23 06:55:25;;;;;;;21.42;18.40;;;;;;;-146.64;100.00;38556.06;5008886;28;20477;-81
2022/04/23 06:57:50;;;;;;;24.53;19.10;;;;;;;-146.64;100.00;38529.47;5004607;28;20033;-82
2022/04/23 07:00:16;;;;;;;23.37;19.00;;;;;;;-146.64;100.00;38333.03;5018378;28;20719;-82
2022/04/23 07:02:41;;;;;;;23.60;19.47;;;;;;;-146.64;100.00;38392.38;4991940;28;20021;-82
2022/04/23 07:05:07;;;;;;;24.63;19.60;;;;;;;-146.64;100.00;38484.44;5014294;28;20133;-83
2022/04/23 07:07:33;;;;;;;23.57;18.83;;;;;;;-146.64;100.00;38486.50;4990890;28;20034;-83
2022/04/23 07:09:58;;;;;;;24.63;19.27;;;;;;;-146.64;100.00;38408.75;4984446;28;20022;-82
2022/04/23 07:12:24;;;;;;;21.53;18.73;;;;;;;-146.64;100.00;38421.00;5008920;28;20502;-83
2022/04/23 07:14:49;;;;;;;22.73;18.27;;;;;;;-146.64;100.00;38396.47;5024690;28;20044;-83
2022/04/23 07:17:15;;;;;;;23.90;18.87;;;;;;;-146.64;100.00;38367.81;5023164;28;20499;-82
2022/04/23 07:19:40;;;;;;;22.00;18.30;;;;;;;-146.64;100.00;38457.84;4983016;28;20029;-83
2022/04/23 07:22:07;;;;;;;24.80;18.93;;;;;;;-146.64;100.00;38380.09;5005193;28;20124;-83
2022/04/23 07:24:33;;;;;;;25.20;18.67;;;;;;;-146.64;100.00;38412.81;5011583;28;20511;-83
2022/04/23 07:26:59;;;;;;;22.17;18.90;;;;;;;-146.64;100.00;38330.97;4975064;28;20108;-83
2022/04/23 07:29:24;;;;;;;23.80;19.50;;;;;;;-146.64;100.00;38349.41;5010676;28;20128;-84
2022/04/23 07:31:50;;;;;;;23.47;18.77;;;;;;;-146.64;100.00;38306.44;4974876;28;20283;-82
2022/04/23 07:39:44;;;;;;;22.38;18.55;;;;;;;-146.64;100.00;38490.59;4998386;28;20408;-83
2022/04/23 07:42:10;;;;;;;24.42;18.58;;;;;;;-146.64;100.00;38445.56;4999576;28;20093;-82
2022/04/23 07:44:36;;;;;;;23.63;18.33;;;;;;;-146.64;100.00;38457.84;5010362;28;20064;-82
2022/04/23 07:47:04;;;;;;;21.73;18.85;;;;;;;-146.64;100.00;38457.84;5011422;28;20029;-82
2022/04/23 07:49:30;;;;;;;25.33;19.13;;;;;;;-146.64;100.00;38459.88;5010768;28;20049;-82
2022/04/23 07:51:55;;;;;;;25.23;18.37;;;;;;;-146.64;100.00;38455.78;5009044;28;20440;-82
2022/04/23 07:54:20;;;;;;;21.97;19.27;;;;;;;-146.64;100.00;38435.34;5005223;28;20121;-82
2022/04/23 07:56:46;;;;;;;29.53;19.43;;;;;;;-146.64;100.00;38402.59;5011114;28;20242;-81
2022/04/23 07:59:11;;;;;;;24.10;18.77;;;;;;;-146.64;100.00;38445.56;4993656;28;20107;-81
2022/04/23 08:01:36;;;;;;;22.87;18.97;;;;;;;-146.64;100.00;38429.19;4992198;28;20022;-83
2022/04/23 08:04:03;;;;;;;25.37;18.87;;;;;;;-146.64;100.00;38500.81;5003227;28;20382;-82
2022/04/23 08:06:29;;;;;;;24.98;19.40;;;;;;;-146.64;100.00;38396.47;5026160;28;20045;-82
2022/04/23 08:08:54;;;;;;;23.67;18.70;;;;;;;-146.64;100.00;38439.44;5000989;28;20037;-82
2022/04/23 08:11:22;;;;;;;20.77;18.17;;;;;;;-146.64;100.00;38425.09;5010089;28;20073;-82
2022/04/23 08:13:48;;;;;;;22.33;18.52;;;;;;;-146.64;100.00;38451.69;5009473;28;20033;-81
2022/04/23 08:16:13;;;;;;;25.60;18.98;;;;;;;-146.64;100.00;38351.44;4989327;28;20087;-82
2022/04/23 08:18:39;;;;;;;25.20;19.17;;;;;;;-146.64;100.00;38441.47;5010446;28;20038;-82
2022/04/23 08:21:04;;;;;;;21.07;18.03;;;;;;;-146.64;100.00;38306.44;4974621;28;20042;-82
2022/04/23 08:23:33;;;;;;;20.30;17.53;;;;;;;-146.64;100.00;38447.63;4991415;28;20021;-82
2022/04/23 08:26:02;;;;;;;24.48;18.33;;;;;;;-146.64;100.00;38449.66;4975023;28;20408;-82
2022/04/23 08:31:12;;;;;;;19.60;17.10;;;;;;;-146.64;100.00;38380.09;5026228;28;20045;-82
2022/04/23 08:36:22;;;;;;;22.30;17.40;;;;;;;-146.64;100.00;38380.09;4993656;28;20124;-83
2022/04/23 08:38:48;;;;;;;26.43;18.23;;;;;;;-146.64;100.00;38412.81;5008298;28;20038;-83
2022/04/23 08:41:13;;;;;;;26.57;18.43;;;;;;;-146.64;100.00;38435.34;5023842;28;20052;-82
2022/04/23 08:43:42;;;;;;;51.33;18.93;;;;;;;-146.64;100.00;38371.91;5015762;28;20124;-83
2022/04/23 08:46:08;;;;;;;20.80;17.10;;;;;;;-146.64;100.00;38326.88;5011820;28;20545;-82
2022/04/23 08:48:42;;;;;;;22.13;17.97;;;;;;;-146.64;100.00;38414.88;5003451;28;20021;-82
2022/04/23 08:51:11;;;;;;;22.85;18.48;;;;;;;-146.64;100.00;38349.41;4977667;28;21065;-82
2022/04/23 08:53:40;;;;;;;24.20;17.52;;;;;;;-146.64;100.00;38273.69;5012310;28;20040;-81
2022/04/23 08:56:06;;;;;;;27.20;18.13;;;;;;;-146.64;100.00;38355.53;5010462;28;20095;-81
2022/04/23 08:58:31;;;;;;;23.37;17.83;;;;;;;-146.64;100.00;38330.97;5007300;28;20045;-82
2022/04/23 09:00:57;;;;;;;30.27;17.53;;;;;;;-146.64;100.00;38302.34;5020458;28;20168;-83
2022/04/23 09:03:22;;;;;;;23.57;17.60;;;;;;;-146.64;100.00;38326.88;5021739;28;20038;-82
2022/04/23 09:05:51;;;;;;;24.33;19.90;;;;;;;-146.64;99.62;38277.78;5000338;28;20041;-82
2022/04/23 09:08:17;;;;;;;20.90;17.67;;;;;;;-146.64;100.00;38316.66;5030029;28;20037;-82
2022/04/23 09:10:54;;;;;;;20.13;17.67;;;;;;;-146.64;97.28;38224.59;4996649;28;20465;-81
2022/04/23 09:13:29;;;;;;;22.60;17.55;;;;;;;-146.64;96.94;38232.78;5013978;28;20037;-82
2022/04/23 09:24:49;;;;;;;20.60;18.35;;;;;;;-146.64;94.86;38298.25;5013897;28;20084;-82
2022/04/23 09:27:15;;;;;;;20.73;18.33;;;;;;;-146.64;99.02;38326.88;5011514;28;20085;-82
2022/04/23 09:29:42;;;;;;;25.83;18.30;;;;;;;-146.64;100.00;38359.63;4990917;28;20536;-83
2022/04/23 09:32:13;;;;;;;24.08;18.05;;;;;;;-146.64;100.00;38281.88;5021461;28;20025;-82
2022/04/23 09:34:38;;;;;;;32.03;19.45;;;;;;;-146.64;97.50;38253.22;4998586;28;20029;-82
2022/04/23 09:37:05;;;;;;;28.87;18.67;;;;;;;-146.64;95.67;38224.59;4992217;28;20450;-81
2022/04/23 09:39:31;;;;;;;23.60;19.70;;;;;;;-146.64;93.80;38126.38;4993057;28;20132;-82
2022/04/23 09:42:14;;;;;;;21.38;18.67;;;;;;;-146.64;93.39;38171.41;4993445;28;20036;-82
2022/04/23 09:44:43;;;;;;;24.40;18.80;;;;;;;-146.64;91.45;38030.22;4978326;28;20390;-82
2022/04/23 09:47:08;;;;;;;21.15;18.50;;;;;;;-146.64;88.65;37960.66;4996654;28;20084;-80
2022/04/23 09:49:34;;;;;;;25.73;20.33;;;;;;;-146.64;92.04;38208.22;4999943;28;20026;-82
2022/04/23 09:52:03;;;;;;;22.08;17.50;;;;;;;-146.64;91.50;38150.94;4996424;28;20080;-82
2022/04/23 09:54:30;;;;;;;21.23;18.75;;;;;;;-146.64;92.16;38134.56;5004242;28;20044;-82
2022/04/23 09:56:56;;;;;;;26.65;18.77;;;;;;;-146.64;93.94;38101.81;5000934;28;20489;-83
2022/04/23 09:59:22;;;;;;;23.73;18.75;;;;;;;-146.64;89.68;38042.50;5000194;28;20056;-82
2022/04/23 10:01:47;;;;;;;26.97;18.97;;;;;;;-146.64;91.45;38204.13;4994944;28;20025;-82
2022/04/23 10:04:13;;;;;;;22.27;19.00;;;;;;;-146.64;93.04;38191.84;4991059;28;20026;-83
2022/04/23 10:06:43;;;;;;;27.30;20.00;;;;;;;-146.64;93.92;38249.13;4994388;28;20294;-82
2022/04/23 10:09:08;;;;;;;27.95;19.92;;;;;;;-146.64;94.13;38265.50;4995945;28;20018;-82
2022/04/23 10:11:36;;;;;;;21.37;18.80;;;;;;;-146.64;90.70;38028.19;4995103;28;20413;-82
2022/04/23 10:14:03;;;;;;;23.70;19.83;;;;;;;-146.64;87.24;37974.97;4977743;28;20120;-81
2022/04/23 10:16:30;;;;;;;31.02;20.75;;;;;;;-146.64;90.39;38085.47;4979355;28;20374;-80
2022/04/23 10:18:56;;;;;;;24.67;20.90;;;;;;;-146.64;91.97;38245.06;5009837;28;20036;-80
2022/04/23 10:21:30;;;;;;;23.80;19.53;;;;;;;-146.64;92.35;38200.03;4989228;28;20434;-80
2022/04/23 10:24:07;;;;;;;27.52;19.95;;;;;;;-146.64;92.03;38142.75;4992223;28;20022;-80
2022/04/23 10:26:49;;;;;;;25.27;20.90;;;;;;;-146.64;93.15;38087.50;5011800;28;20029;-80
2022/04/23 10:29:20;;;;;;;30.08;20.30;;;;;;;-146.64;87.64;37858.38;4995880;28;20456;-80
2022/04/23 10:32:15;;;;;;;27.45;19.70;;;;;;;-146.64;85.57;37901.31;4994626;28;20491;-82
2022/04/23 10:34:42;;;;;;;25.17;20.27;;;;;;;-146.64;84.22;38052.72;5003895;28;20099;-81
2022/04/23 10:37:30;;;;;;;22.67;19.77;;;;;;;-146.64;84.77;37958.63;4984620;28;20164;-81
2022/04/23 10:39:55;;;;;;;22.85;19.88;;;;;;;-146.64;82.83;37852.22;4984335;28;20082;-81
2022/04/23 10:42:25;;;;;;;28.77;19.33;;;;;;;-146.64;80.58;37823.59;5009759;28;20156;-81
2022/04/23 10:44:51;;;;;;;21.67;19.27;;;;;;;-146.64;80.68;37936.09;5006131;28;20136;-80
2022/04/23 10:47:26;;;;;;;23.10;19.63;;;;;;;-146.64;81.02;37968.84;5001310;28;20030;-81
2022/04/23 10:50:13;;;;;;;27.63;19.80;;;;;;;-146.64;80.36;37897.25;5010479;28;20041;-80
2022/04/23 10:52:39;;;;;;;23.40;19.75;;;;;;;-146.64;78.45;37835.88;5004880;28;20030;-81
2022/04/23 10:55:05;;;;;;;24.27;19.80;;;;;;;-146.64;77.98;37962.72;4989795;28;20042;-80
2022/04/23 10:57:30;;;;;;;26.20;19.77;;;;;;;-146.64;78.99;37807.22;4999171;28;20081;-80
2022/04/23 10:59:56;;;;;;;22.30;19.90;;;;;;;-146.64;77.52;37923.84;4996053;28;20341;-82
2022/04/23 11:02:21;;;;;;;24.80;21.02;;;;;;;-146.64;76.52;37833.81;4993463;28;20101;-82
2022/04/23 11:13:29;;;;;;;35.60;19.80;;;;;;;-146.64;76.93;37913.59;4995329;28;20119;-81
2022/04/23 11:16:13;;;;;;;;;;;;;;;-146.64;78.17;37831.78;4987255;28;20125;-81
2022/04/23 11:18:40;;;;;;;30.10;20.23;;;;;;;-146.64;74.02;37729.47;5012183;28;19925;-81
2022/04/23 11:21:32;;;;;;;24.90;20.33;;;;;;;-146.64;75.38;37997.50;5012533;28;20048;-81
2022/04/23 11:23:59;;;;;;;22.55;19.45;;;;;;;-146.64;75.97;37872.69;4997649;28;20030;-81
2022/04/23 11:26:41;;;;;;;;;;;;;;;-146.64;75.59;37876.78;4992072;28;20041;-81
2022/04/23 11:29:06;;;;;;;24.70;21.10;;;;;;;-146.64;76.96;37999.53;4991161;28;19996;-81